createdAt,value
2019-05-25T00:00:23.441Z,8.28
2019-05-25T00:03:25.010Z,5.70
2019-05-25T00:06:26.486Z,7.42
2019-05-25T00:09:28.030Z,10.68
2019-05-25T00:12:29.566Z,7.78
2019-05-25T00:15:31.079Z,6.10
2019-05-25T00:18:32.605Z,7.92
2019-05-25T00:21:34.137Z,6.75
2019-05-25T00:24:35.646Z,9.23
2019-05-25T00:27:37.259Z,7.15
2019-05-25T00:30:38.761Z,6.95
2019-05-25T00:33:40.358Z,7.50
2019-05-25T00:36:41.928Z,8.33
2019-05-25T00:39:44.613Z,8.10
2019-05-25T00:42:46.139Z,9.63
2019-05-25T00:45:47.692Z,6.78
2019-05-25T00:48:49.265Z,8.55
2019-05-25T00:51:50.793Z,6.75
2019-05-25T00:54:52.325Z,7.25
2019-05-25T00:57:53.921Z,10.40
2019-05-25T01:00:55.508Z,7.05
2019-05-25T01:03:57.226Z,8.83
2019-05-25T01:06:58.798Z,8.93
2019-05-25T01:10:00.321Z,8.88
2019-05-25T01:13:01.961Z,6.87
2019-05-25T01:16:03.518Z,8.80
2019-05-25T01:19:05.152Z,8.38
2019-05-25T01:22:06.688Z,7.37
2019-05-25T01:25:08.846Z,7.12
2019-05-25T01:28:10.393Z,7.35
2019-05-25T01:31:12.002Z,9.35
2019-05-25T01:34:13.544Z,6.90
2019-05-25T01:37:15.078Z,7.03
2019-05-25T01:40:16.812Z,7.20
2019-05-25T01:43:18.307Z,6.53
2019-05-25T01:46:19.833Z,9.58
2019-05-25T01:49:21.402Z,6.35
2019-05-25T01:52:22.944Z,7.15
2019-05-25T01:55:24.494Z,6.17
2019-05-25T01:58:26.036Z,6.87
2019-05-25T02:01:27.718Z,7.92
2019-05-25T02:04:29.303Z,9.08
2019-05-25T02:07:30.929Z,8.55
2019-05-25T02:10:32.433Z,8.05
2019-05-25T02:13:34.040Z,9.23
2019-05-25T02:16:35.597Z,6.95
2019-05-25T02:19:37.184Z,6.80
2019-05-25T02:22:38.669Z,9.85
2019-05-25T02:25:40.206Z,8.28
2019-05-25T02:28:41.718Z,8.80
2019-05-25T02:31:43.281Z,9.53
2019-05-25T02:34:44.783Z,11.18
2019-05-25T02:37:46.325Z,9.65
2019-05-25T02:40:47.865Z,7.00
2019-05-25T02:43:49.413Z,8.63
2019-05-25T02:46:50.914Z,11.53
2019-05-25T02:49:52.486Z,9.63
2019-05-25T02:52:54.062Z,8.30
2019-05-25T02:55:55.580Z,8.08
2019-05-25T02:58:57.212Z,8.68
2019-05-25T03:01:58.766Z,12.23
2019-05-25T03:05:00.291Z,7.83
2019-05-25T03:08:01.825Z,10.00
2019-05-25T03:11:03.551Z,8.35
2019-05-25T03:14:05.816Z,7.12
2019-05-25T03:17:07.415Z,13.20
2019-05-25T03:20:09.120Z,8.60
2019-05-25T03:23:10.689Z,7.40
2019-05-25T03:26:12.195Z,7.70
2019-05-25T03:29:14.271Z,7.83
2019-05-25T03:32:15.835Z,7.25
2019-05-25T03:35:17.459Z,8.20
2019-05-25T03:38:19.040Z,8.40
2019-05-25T03:41:20.547Z,10.78
2019-05-25T03:44:22.089Z,8.33
2019-05-25T03:47:23.657Z,10.95
2019-05-25T03:50:26.185Z,9.20
2019-05-25T03:53:27.792Z,9.78
2019-05-25T03:56:29.307Z,9.40
2019-05-25T03:59:30.936Z,8.55
2019-05-25T04:02:32.580Z,8.80
2019-05-25T04:05:34.119Z,8.75
2019-05-25T04:08:35.671Z,11.05
2019-05-25T04:11:37.194Z,8.08
2019-05-25T04:14:38.712Z,8.65
2019-05-25T04:17:40.324Z,8.33
2019-05-25T04:20:41.885Z,9.45
2019-05-25T04:23:43.432Z,10.00
2019-05-25T04:26:44.969Z,9.38
2019-05-25T04:29:46.579Z,8.60
2019-05-25T04:32:48.140Z,9.35
2019-05-25T04:35:49.671Z,14.75
2019-05-25T04:38:51.268Z,10.03
2019-05-25T04:41:52.802Z,8.63
2019-05-25T04:44:54.345Z,8.35
2019-05-25T04:47:55.940Z,7.65
2019-05-25T04:50:57.511Z,7.72
2019-05-25T04:53:59.092Z,8.90
2019-05-25T04:57:00.649Z,7.62
2019-05-25T05:00:02.234Z,7.62
2019-05-25T05:03:03.877Z,7.80
2019-05-25T05:06:05.544Z,6.83
2019-05-25T05:09:08.669Z,9.58
2019-05-25T05:12:10.238Z,9.05
2019-05-25T05:15:12.110Z,8.65
2019-05-25T05:18:13.675Z,8.20
2019-05-25T05:21:15.229Z,9.38
2019-05-25T05:24:16.740Z,8.95
2019-05-25T05:27:18.341Z,10.15
2019-05-25T05:30:31.269Z,9.50
2019-05-25T05:33:32.857Z,8.30
2019-05-25T05:36:35.971Z,10.05
2019-05-25T05:39:37.562Z,11.35
2019-05-25T05:42:40.304Z,9.00
2019-05-25T05:45:43.655Z,13.55
2019-05-25T05:48:50.685Z,9.23
2019-05-25T05:51:52.358Z,9.18
2019-05-25T05:54:55.135Z,8.38
2019-05-25T05:57:56.661Z,8.53
2019-05-25T06:00:58.175Z,8.35
2019-05-25T06:03:59.720Z,11.15
2019-05-25T06:07:01.297Z,9.68
2019-05-25T06:10:02.915Z,12.68
2019-05-25T06:13:04.556Z,11.30
2019-05-25T06:16:06.119Z,10.60
2019-05-25T06:19:07.629Z,10.08
2019-05-25T06:22:09.205Z,9.65
2019-05-25T06:25:11.032Z,9.38
2019-05-25T06:28:12.650Z,12.98
2019-05-25T06:31:14.205Z,8.18
2019-05-25T06:34:15.761Z,8.50
2019-05-25T06:37:17.292Z,9.53
2019-05-25T06:40:19.071Z,11.45
2019-05-25T06:43:20.632Z,11.33
2019-05-25T06:46:22.196Z,8.50
2019-05-25T06:49:23.745Z,8.85
2019-05-25T06:52:25.286Z,11.53
2019-05-25T06:55:26.824Z,13.10
2019-05-25T06:58:29.451Z,9.15
2019-05-25T07:01:30.982Z,11.53
2019-05-25T07:04:32.538Z,11.48
2019-05-25T07:07:34.091Z,10.18
2019-05-25T07:10:35.711Z,9.18
2019-05-25T07:13:37.314Z,9.23
2019-05-25T07:16:38.841Z,10.58
2019-05-25T07:19:40.396Z,11.40
2019-05-25T07:22:41.940Z,8.55
2019-05-25T07:25:43.504Z,9.55
2019-05-25T07:28:45.044Z,10.63
2019-05-25T07:31:46.671Z,14.58
2019-05-25T07:34:49.239Z,12.10
2019-05-25T07:37:50.807Z,11.95
2019-05-25T07:40:52.357Z,14.53
2019-05-25T07:43:53.909Z,13.95
2019-05-25T07:46:55.443Z,17.65
2019-05-25T07:49:57.007Z,16.10
2019-05-25T07:52:58.585Z,13.98
2019-05-25T07:56:00.116Z,13.20
2019-05-25T07:59:01.648Z,12.63
2019-05-25T08:02:03.276Z,12.70
2019-05-25T08:05:05.196Z,11.55
2019-05-25T08:08:06.851Z,14.40
2019-05-25T08:11:08.391Z,15.20
2019-05-25T08:14:09.924Z,13.80
2019-05-25T08:17:11.471Z,20.70
2019-05-25T08:20:13.137Z,14.45
2019-05-25T08:23:14.756Z,14.40
2019-05-25T08:26:16.316Z,13.30
2019-05-25T08:29:17.872Z,11.65
2019-05-25T08:32:19.431Z,13.53
2019-05-25T08:35:20.977Z,14.20
2019-05-25T08:38:22.508Z,13.60
2019-05-25T08:41:24.071Z,13.10
2019-05-25T08:44:25.587Z,11.20
2019-05-25T08:47:27.112Z,11.12
2019-05-25T08:50:37.947Z,11.80
2019-05-25T08:53:41.309Z,10.65
2019-05-25T08:56:35.165Z,13.45
2019-05-25T08:59:36.856Z,12.07
2019-05-25T09:02:38.494Z,10.72
2019-05-25T09:05:40.093Z,12.82
2019-05-25T09:08:41.641Z,12.00
2019-05-25T09:11:43.222Z,13.22
2019-05-25T09:14:44.774Z,11.80
2019-05-25T09:17:46.312Z,11.33
2019-05-25T09:20:47.874Z,11.65
2019-05-25T09:23:49.458Z,12.63
2019-05-25T09:26:50.998Z,11.28
2019-05-25T09:29:52.612Z,13.80
2019-05-25T09:32:55.224Z,12.13
2019-05-25T09:35:56.718Z,13.65
2019-05-25T09:38:58.282Z,16.27
2019-05-25T09:41:59.898Z,10.45
2019-05-25T09:45:01.580Z,11.03
2019-05-25T09:48:03.200Z,10.05
2019-05-25T09:51:04.817Z,8.43
2019-05-25T09:54:06.492Z,9.60
2019-05-25T09:57:08.089Z,8.90
2019-05-25T10:00:11.372Z,9.85
2019-05-25T10:03:12.961Z,8.50
2019-05-25T10:06:14.534Z,9.10
2019-05-25T10:09:16.107Z,9.43
2019-05-25T10:12:17.581Z,8.58
2019-05-25T10:15:19.106Z,9.00
2019-05-25T10:18:20.622Z,7.85
2019-05-25T10:21:22.174Z,10.08
2019-05-25T10:24:23.730Z,10.30
2019-05-25T10:27:26.420Z,10.90
2019-05-25T10:30:27.950Z,11.53
2019-05-25T10:33:29.595Z,13.00
2019-05-25T10:36:31.134Z,8.10
2019-05-25T10:39:32.642Z,8.98
2019-05-25T10:42:34.162Z,10.28
2019-05-25T10:45:35.704Z,11.18
2019-05-25T10:48:37.301Z,9.48
2019-05-25T10:51:38.839Z,8.95
2019-05-25T10:54:40.406Z,8.43
2019-05-25T10:57:41.888Z,11.75
2019-05-25T11:00:43.438Z,9.63
2019-05-25T11:03:45.056Z,8.00
2019-05-25T11:06:46.601Z,9.40
2019-05-25T11:09:48.165Z,10.25
2019-05-25T11:12:49.737Z,8.90
2019-05-25T11:15:52.230Z,8.50
2019-05-25T11:18:53.779Z,10.48
2019-05-25T11:21:55.331Z,9.90
2019-05-25T11:24:56.869Z,8.70
2019-05-25T11:27:59.475Z,9.60
2019-05-25T11:31:00.993Z,7.25
2019-05-25T11:34:03.619Z,7.90
2019-05-25T11:37:05.137Z,8.03
2019-05-25T11:40:07.689Z,9.58
2019-05-25T11:43:09.292Z,9.35
2019-05-25T11:46:10.835Z,9.18
2019-05-25T11:49:22.202Z,8.05
2019-05-25T11:52:15.650Z,6.92
2019-05-25T11:55:18.856Z,7.85
2019-05-25T11:58:20.436Z,10.35
2019-05-25T12:01:22.074Z,10.55
2019-05-25T12:04:23.568Z,8.73
2019-05-25T12:07:25.118Z,9.00
2019-05-25T12:10:26.640Z,8.90
2019-05-25T12:13:31.864Z,6.83
2019-05-25T12:16:32.426Z,7.65
2019-05-25T12:19:33.968Z,6.85
2019-05-25T12:22:35.578Z,8.43
2019-05-25T12:25:37.124Z,6.22
2019-05-25T12:28:38.876Z,9.98
2019-05-25T12:31:40.473Z,7.35
2019-05-25T12:34:42.037Z,8.05
2019-05-25T12:37:43.577Z,9.93
2019-05-25T12:40:53.683Z,6.87
2019-05-25T12:43:48.830Z,7.10
2019-05-25T12:46:50.392Z,10.00
2019-05-25T12:49:51.974Z,6.25
2019-05-25T12:52:54.482Z,6.87
2019-05-25T12:55:55.982Z,6.17
2019-05-25T12:58:57.566Z,5.00
2019-05-25T13:01:59.140Z,6.25
2019-05-25T13:05:01.550Z,4.60
2019-05-25T13:08:04.143Z,6.55
2019-05-25T13:11:09.400Z,9.75
2019-05-25T13:14:14.896Z,7.42
2019-05-25T13:17:15.595Z,7.12
2019-05-25T13:20:18.032Z,7.47
2019-05-25T13:23:19.609Z,6.90
2019-05-25T13:26:21.163Z,7.65
2019-05-25T13:29:22.729Z,9.00
2019-05-25T13:32:24.266Z,8.48
2019-05-25T13:35:25.862Z,8.13
2019-05-25T13:38:27.480Z,7.15
2019-05-25T13:41:29.013Z,8.40
2019-05-25T13:44:30.572Z,7.75
2019-05-25T13:47:32.080Z,7.42
2019-05-25T13:50:33.665Z,9.18
2019-05-25T13:53:35.278Z,9.43
2019-05-25T13:56:36.795Z,5.25
2019-05-25T13:59:38.338Z,7.45
2019-05-25T14:02:39.931Z,6.58
2019-05-25T14:05:41.489Z,5.17
2019-05-25T14:08:43.050Z,5.53
2019-05-25T14:11:44.666Z,5.47
2019-05-25T14:14:46.211Z,5.08
2019-05-25T14:17:47.789Z,10.05
2019-05-25T14:20:49.429Z,4.90
2019-05-25T14:23:51.021Z,5.62
2019-05-25T14:26:53.707Z,4.55
2019-05-25T14:29:55.262Z,6.60
2019-05-25T14:32:56.805Z,6.28
2019-05-25T14:35:58.347Z,8.30
2019-05-25T14:38:59.898Z,6.72
2019-05-25T14:42:01.422Z,4.35
2019-05-25T14:45:02.925Z,6.58
2019-05-25T14:48:04.502Z,4.75
2019-05-25T14:51:06.041Z,5.83
2019-05-25T14:54:07.657Z,5.12
2019-05-25T14:57:09.123Z,9.53
2019-05-25T15:00:13.404Z,4.33
2019-05-25T15:03:14.994Z,4.90
2019-05-25T15:06:20.723Z,4.90
2019-05-25T15:09:19.888Z,4.90
2019-05-25T15:12:21.435Z,5.37
2019-05-25T15:15:22.994Z,6.92
2019-05-25T15:18:24.548Z,6.95
2019-05-25T15:21:26.641Z,7.78
2019-05-25T15:24:28.495Z,5.40
2019-05-25T15:27:31.148Z,3.98
2019-05-25T15:30:32.779Z,4.80
2019-05-25T15:33:34.366Z,3.85
2019-05-25T15:36:35.942Z,6.00
2019-05-25T15:39:37.558Z,4.22
2019-05-25T15:42:39.121Z,8.68
2019-05-25T15:45:40.637Z,6.58
2019-05-25T15:48:42.286Z,4.72
2019-05-25T15:51:43.894Z,5.50
2019-05-25T15:54:45.445Z,4.50
2019-05-25T15:57:47.067Z,7.95
2019-05-25T16:00:50.834Z,4.30
2019-05-25T16:03:52.541Z,4.53
2019-05-25T16:06:54.273Z,5.53
2019-05-25T16:09:55.870Z,5.78
2019-05-25T16:12:57.491Z,3.87
2019-05-25T16:15:59.045Z,5.90
2019-05-25T16:19:00.595Z,3.67
2019-05-25T16:22:02.134Z,3.33
2019-05-25T16:25:03.771Z,5.53
2019-05-25T16:28:05.303Z,4.97
2019-05-25T16:31:06.824Z,3.75
2019-05-25T16:34:08.382Z,3.20
2019-05-25T16:37:10.152Z,4.67
2019-05-25T16:40:12.804Z,2.90
2019-05-25T16:43:14.395Z,5.28
2019-05-25T16:46:15.911Z,5.83
2019-05-25T16:49:17.508Z,3.85
2019-05-25T16:52:19.039Z,3.33
2019-05-25T16:55:20.568Z,2.92
2019-05-25T16:58:22.153Z,6.30
2019-05-25T17:01:23.691Z,5.30
2019-05-25T17:04:25.273Z,3.98
2019-05-25T17:07:26.957Z,3.75
2019-05-25T17:10:28.664Z,4.03
2019-05-25T17:13:30.232Z,3.12
2019-05-25T17:16:31.767Z,4.92
2019-05-25T17:19:33.286Z,2.52
2019-05-25T17:22:34.775Z,3.60
2019-05-25T17:25:36.436Z,3.58
2019-05-25T17:28:37.963Z,5.45
2019-05-25T17:31:39.482Z,4.20
2019-05-25T17:34:42.113Z,3.62
2019-05-25T17:37:43.725Z,3.80
2019-05-25T17:40:45.333Z,3.65
2019-05-25T17:43:46.996Z,2.47
2019-05-25T17:46:48.569Z,2.45
2019-05-25T17:49:50.190Z,3.10
2019-05-25T17:52:51.739Z,4.17
2019-05-25T17:55:53.329Z,4.15
2019-05-25T17:58:54.919Z,3.00
2019-05-25T18:01:56.541Z,3.77
2019-05-25T18:04:58.147Z,2.27
2019-05-25T18:07:59.703Z,4.62
2019-05-25T18:11:01.297Z,3.22
2019-05-25T18:14:02.841Z,3.45
2019-05-25T18:17:04.415Z,3.02
2019-05-25T18:20:07.117Z,2.50
2019-05-25T18:23:08.697Z,3.10
2019-05-25T18:26:10.325Z,2.62
2019-05-25T18:29:11.880Z,1.40
2019-05-25T18:32:13.426Z,3.05
2019-05-25T18:35:15.060Z,2.33
2019-05-25T18:38:16.579Z,2.77
2019-05-25T18:41:18.109Z,3.45
2019-05-25T18:44:19.676Z,3.05
2019-05-25T18:47:21.202Z,1.82
2019-05-25T18:50:23.238Z,23.35
2019-05-25T18:53:24.762Z,15.28
2019-05-25T18:56:26.304Z,5.37
2019-05-25T18:59:27.876Z,2.80
2019-05-25T19:02:29.412Z,2.47
2019-05-25T19:05:31.059Z,2.27
2019-05-25T19:08:32.683Z,3.83
2019-05-25T19:11:35.907Z,10.68
2019-05-25T19:14:37.755Z,3.12
2019-05-25T19:17:39.323Z,1.80
2019-05-25T19:20:40.884Z,4.15
2019-05-25T19:23:42.352Z,2.70
2019-05-25T19:26:43.913Z,3.72
2019-05-25T19:29:45.477Z,2.72
2019-05-25T19:32:47.012Z,5.58
2019-05-25T19:35:48.597Z,2.95
2019-05-25T19:38:56.514Z,6.10
2019-05-25T19:41:59.757Z,2.47
2019-05-25T19:45:01.286Z,4.87
2019-05-25T19:48:02.913Z,2.50
2019-05-25T19:51:04.456Z,4.87
2019-05-25T19:54:07.108Z,4.58
2019-05-25T19:57:08.627Z,4.35
2019-05-25T20:00:12.118Z,3.70
2019-05-25T20:03:13.651Z,2.80
2019-05-25T20:06:15.220Z,3.22
2019-05-25T20:09:16.754Z,5.25
2019-05-25T20:12:18.281Z,6.42
2019-05-25T20:15:19.997Z,3.12
2019-05-25T20:18:21.501Z,4.50
2019-05-25T20:21:23.033Z,2.87
2019-05-25T20:24:24.548Z,2.60
2019-05-25T20:27:26.060Z,3.40
2019-05-25T20:30:28.790Z,4.08
2019-05-25T20:33:34.482Z,3.05
2019-05-25T20:36:33.679Z,4.60
2019-05-25T20:39:35.217Z,4.65
2019-05-25T20:42:36.825Z,5.33
2019-05-25T20:45:38.347Z,3.52
2019-05-25T20:48:40.978Z,6.30
2019-05-25T20:51:42.661Z,3.22
2019-05-25T20:54:44.281Z,6.97
2019-05-25T20:57:45.924Z,5.83
2019-05-25T21:00:47.418Z,6.67
2019-05-25T21:03:50.069Z,4.92
2019-05-25T21:06:52.680Z,4.95
2019-05-25T21:09:54.177Z,2.90
2019-05-25T21:12:55.834Z,2.58
2019-05-25T21:15:57.455Z,3.55
2019-05-25T21:19:02.346Z,3.22
2019-05-25T21:22:02.313Z,2.40
2019-05-25T21:25:05.817Z,3.77
2019-05-25T21:28:07.070Z,2.17
2019-05-25T21:31:08.600Z,3.40
2019-05-25T21:34:10.150Z,3.85
2019-05-25T21:37:11.684Z,4.33
2019-05-25T21:40:13.691Z,2.30
2019-05-25T21:43:15.202Z,3.20
2019-05-25T21:46:16.752Z,4.22
2019-05-25T21:49:18.353Z,2.60
2019-05-25T21:52:19.916Z,3.50
2019-05-25T21:55:21.438Z,3.45
2019-05-25T21:58:23.047Z,2.77
2019-05-25T22:01:24.725Z,2.75
2019-05-25T22:04:26.346Z,2.72
2019-05-25T22:07:27.890Z,3.37
2019-05-25T22:10:29.517Z,3.50
2019-05-25T22:13:31.079Z,3.10
2019-05-25T22:16:32.601Z,3.02
2019-05-25T22:19:34.168Z,3.25
2019-05-25T22:22:35.746Z,4.47
2019-05-25T22:25:37.308Z,3.35
2019-05-25T22:28:44.714Z,3.25
2019-05-25T22:31:42.131Z,3.37
2019-05-25T22:34:43.795Z,5.15
2019-05-25T22:37:45.395Z,4.03
2019-05-25T22:40:46.953Z,2.70
2019-05-25T22:43:48.478Z,2.58
2019-05-25T22:46:50.025Z,2.35
2019-05-25T22:49:51.689Z,3.08
2019-05-25T22:52:53.262Z,4.00
2019-05-25T22:55:54.786Z,5.22
2019-05-25T22:58:56.326Z,4.65
2019-05-25T23:01:57.851Z,3.33
2019-05-25T23:04:59.429Z,4.25
2019-05-25T23:08:00.978Z,2.70
2019-05-25T23:11:02.617Z,3.52
2019-05-25T23:14:04.251Z,5.05
2019-05-25T23:17:05.924Z,5.72
2019-05-25T23:20:07.992Z,5.15
2019-05-25T23:23:09.555Z,6.75
2019-05-25T23:26:11.078Z,7.55
2019-05-25T23:29:12.679Z,7.30
2019-05-25T23:32:14.309Z,6.10
2019-05-25T23:35:16.106Z,7.30
2019-05-25T23:38:20.687Z,5.40
2019-05-25T23:41:22.222Z,4.33
2019-05-25T23:44:23.755Z,4.03
2019-05-25T23:47:25.355Z,3.83
2019-05-25T23:50:26.969Z,6.70
2019-05-25T23:53:28.517Z,3.40
2019-05-25T23:56:30.085Z,3.52
2019-05-25T23:59:31.624Z,3.15
